Time;durP1;ratioP1;P1;durP2;ratioP2;P2;SDS_P1;SDS_P2;PMS_P1;PMS_P2;Temp;Humidity;BMP_temperature;BMP_pressure;BME280_temperature;BME280_humidity;BME280_pressure;Samples;Min_cycle;Max_cycle;Signal;HPM_P1;HPM_P2
2021/03/06 00:04:27;;;;;;;8.38;4.40;;;;;;;-1.89;100.00;101485.50;253250;1110;104245;-81
2021/03/06 00:09:28;;;;;;;6.05;4.12;;;;;;;-2.03;100.00;101486.83;253321;1109;104742;-80
2021/03/06 00:14:30;;;;;;;6.40;3.70;;;;;;;-2.12;100.00;101484.84;253297;1112;104344;-81
2021/03/06 00:19:31;;;;;;;6.65;4.60;;;;;;;-2.10;100.00;101489.27;254434;1111;104281;-81
2021/03/06 00:24:34;;;;;;;8.23;4.78;;;;;;;-2.09;100.00;101491.05;258683;1112;104272;-81
2021/03/06 00:29:35;;;;;;;11.88;5.90;;;;;;;-2.08;100.00;101494.56;258312;1111;104229;-79
2021/03/06 00:34:36;;;;;;;10.32;6.10;;;;;;;-2.14;100.00;101494.35;258443;1109;102990;-78
2021/03/06 00:39:37;;;;;;;8.90;5.77;;;;;;;-2.30;100.00;101496.53;252885;1112;104874;-79
2021/03/06 00:44:39;;;;;;;6.83;5.60;;;;;;;-2.29;100.00;101489.56;252367;1112;104451;-80
2021/03/06 00:49:40;;;;;;;8.98;6.00;;;;;;;-2.33;100.00;101490.33;252455;1112;104728;-82
2021/03/06 00:54:41;;;;;;;9.25;6.42;;;;;;;-2.42;100.00;101486.59;253564;1112;104823;-80
2021/03/06 00:59:42;;;;;;;10.40;6.40;;;;;;;-2.44;100.00;101483.03;255622;1111;104268;-82
2021/03/06 01:04:43;;;;;;;10.82;6.92;;;;;;;-2.43;100.00;101484.81;254641;1111;104357;-80
2021/03/06 01:09:45;;;;;;;10.63;6.10;;;;;;;-2.46;100.00;101487.31;254141;1111;104268;-81
2021/03/06 01:14:46;;;;;;;9.10;6.55;;;;;;;-2.45;100.00;101473.42;253304;1112;105376;-81
2021/03/06 01:19:47;;;;;;;11.22;7.50;;;;;;;-2.45;100.00;101470.81;253245;1110;104644;-80
2021/03/06 01:24:48;;;;;;;8.30;6.35;;;;;;;-2.53;100.00;101480.13;253168;1110;105030;-80
2021/03/06 01:29:49;;;;;;;7.60;5.37;;;;;;;-2.65;100.00;101491.10;252977;1112;104283;-81
2021/03/06 01:34:51;;;;;;;9.73;6.15;;;;;;;-2.64;100.00;101497.19;252853;1112;104421;-80
2021/03/06 01:39:52;;;;;;;13.65;9.30;;;;;;;-2.44;100.00;101495.22;253115;1110;104271;-79
2021/03/06 01:44:53;;;;;;;14.50;10.40;;;;;;;-2.41;100.00;101490.98;252663;1110;104355;-80
2021/03/06 01:49:54;;;;;;;14.00;10.67;;;;;;;-2.43;100.00;101484.81;252937;1111;104392;-81
2021/03/06 01:54:57;;;;;;;14.73;9.48;;;;;;;-2.46;100.00;101481.22;252999;1110;104342;-79
2021/03/06 01:59:59;;;;;;;16.50;11.28;;;;;;;-2.47;100.00;101480.34;253054;1109;104357;-80
2021/03/06 02:05:00;;;;;;;20.47;12.80;;;;;;;-2.43;100.00;101481.30;253197;1112;104265;-80
2021/03/06 02:10:03;;;;;;;20.50;11.78;;;;;;;-2.42;100.00;101481.36;253100;1110;104267;-80
2021/03/06 02:15:56;;;;;;;19.55;12.70;;;;;;;-2.46;100.00;101484.70;253114;1112;104267;-79
2021/03/06 02:21:18;;;;;;;17.92;11.95;;;;;;;-2.53;100.00;101484.48;252769;1110;104421;-82
2021/03/06 02:26:39;;;;;;;16.32;11.53;;;;;;;-2.60;100.00;101493.83;253852;1110;104226;-78
2021/03/06 02:31:41;;;;;;;20.25;12.07;;;;;;;-2.52;100.00;101500.19;259300;1109;104112;-79
2021/03/06 02:36:56;;;;;;;22.87;14.20;;;;;;;-2.59;100.00;101495.61;257665;1110;104265;-78
2021/03/06 02:41:58;;;;;;;17.00;10.65;;;;;;;-2.66;100.00;101504.98;253208;1111;104267;-80
2021/03/06 02:46:59;;;;;;;14.98;10.18;;;;;;;-2.70;100.00;101507.44;252891;1112;104280;-80
2021/03/06 02:52:01;;;;;;;15.28;10.18;;;;;;;-2.65;100.00;101513.69;252727;1110;104730;-81
2021/03/06 02:57:03;;;;;;;12.65;8.38;;;;;;;-2.77;100.00;101535.05;252927;1110;104328;-79
2021/03/06 03:02:30;;;;;;;14.87;8.75;;;;;;;-2.80;100.00;101538.45;253066;1109;104274;-81
2021/03/06 03:07:54;;;;;;;11.60;8.67;;;;;;;-2.83;100.00;101527.94;252941;1109;104262;-81
2021/03/06 03:13:05;;;;;;;15.35;11.25;;;;;;;-2.80;100.00;101532.36;253027;1109;104319;-79
2021/03/06 03:18:13;;;;;;;19.98;12.00;;;;;;;-2.92;100.00;101530.22;253036;1110;104342;-80
2021/03/06 03:23:39;;;;;;;12.90;8.80;;;;;;;-3.00;100.00;101534.29;253039;1110;104342;-80
2021/03/06 03:28:44;;;;;;;13.80;9.07;;;;;;;-2.93;100.00;101541.49;253023;1112;104265;-81
2021/03/06 03:33:46;;;;;;;17.07;11.17;;;;;;;-2.94;100.00;101539.71;253114;1111;104345;-80
2021/03/06 03:38:48;;;;;;;17.87;10.28;;;;;;;-2.89;100.00;101546.00;252905;1110;104318;-81
2021/03/06 03:43:50;;;;;;;14.57;10.90;;;;;;;-2.97;100.00;101560.50;252930;1112;104348;-79
2021/03/06 03:48:53;;;;;;;14.03;11.57;;;;;;;-2.84;100.00;101565.30;252878;1112;104357;-79
2021/03/06 03:53:54;;;;;;;15.90;10.17;;;;;;;-2.80;100.00;101574.99;253250;1110;106118;-82
2021/03/06 03:58:56;;;;;;;15.35;9.50;;;;;;;-2.91;100.00;101586.80;252827;1110;104344;-82
2021/03/06 04:03:57;;;;;;;14.87;10.70;;;;;;;-3.00;100.00;101584.77;253087;1110;104344;-81
2021/03/06 04:08:58;;;;;;;15.63;10.20;;;;;;;-3.16;100.00;101587.67;253160;1110;104504;-81
2021/03/06 04:13:59;;;;;;;14.80;9.15;;;;;;;-3.17;100.00;101591.98;253506;1111;104347;-81
2021/03/06 04:19:01;;;;;;;15.13;10.40;;;;;;;-3.17;100.00;101591.98;255602;1110;104268;-80
2021/03/06 04:24:03;;;;;;;15.95;10.48;;;;;;;-3.15;100.00;101597.27;257198;1110;104258;-81
2021/03/06 04:29:04;;;;;;;15.18;9.30;;;;;;;-3.25;100.00;101591.72;255967;1112;104271;-80
2021/03/06 04:34:05;;;;;;;17.20;10.00;;;;;;;-3.19;100.00;101596.27;255523;1111;105027;-80
2021/03/06 04:39:07;;;;;;;17.00;9.68;;;;;;;-3.11;100.00;101602.66;253517;1112;104271;-80
2021/03/06 04:44:09;;;;;;;15.72;9.98;;;;;;;-3.02;100.00;101602.08;254097;1111;104769;-80
2021/03/06 04:49:11;;;;;;;15.15;10.10;;;;;;;-2.94;100.00;101607.56;254077;1112;104769;-80
2021/03/06 04:54:12;;;;;;;15.03;9.30;;;;;;;-3.16;100.00;101616.36;253822;1109;104240;-81
2021/03/06 04:59:13;;;;;;;16.62;10.40;;;;;;;-3.04;100.00;101614.18;253610;1111;105176;-78
2021/03/06 05:04:15;;;;;;;12.40;9.48;;;;;;;-3.09;100.00;101614.01;253337;1112;104469;-80
2021/03/06 05:09:16;;;;;;;11.13;6.30;;;;;;;-3.05;100.00;101615.91;253125;1110;104290;-81
2021/03/06 05:14:17;;;;;;;15.00;9.43;;;;;;;-3.08;100.00;101621.01;253235;1109;104270;-80
2021/03/06 05:19:18;;;;;;;12.10;8.90;;;;;;;-2.90;100.00;101628.59;253332;1112;104274;-81
2021/03/06 05:24:20;;;;;;;16.50;10.20;;;;;;;-2.94;100.00;101621.52;253332;1111;104374;-80
2021/03/06 05:29:21;;;;;;;17.27;11.08;;;;;;;-2.88;100.00;101615.59;253453;1110;104411;-79
2021/03/06 05:34:22;;;;;;;15.88;9.98;;;;;;;-2.90;100.00;101625.12;253400;1109;104989;-79
2021/03/06 05:39:25;;;;;;;11.45;9.68;;;;;;;-2.83;100.00;101620.98;253387;1111;104328;-80
2021/03/06 05:44:27;;;;;;;17.85;10.58;;;;;;;-2.81;100.00;101625.41;253500;1110;104644;-79
2021/03/06 05:49:28;;;;;;;17.77;9.80;;;;;;;-2.76;100.00;101643.84;253357;1112;104743;-81
2021/03/06 05:54:30;;;;;;;15.93;8.50;;;;;;;-2.85;100.00;101641.81;253649;1109;104961;-79
2021/03/06 05:59:33;;;;;;;11.25;6.25;;;;;;;-2.98;100.00;101652.66;253871;1111;104390;-79
2021/03/06 06:04:35;;;;;;;16.95;9.88;;;;;;;-2.76;100.00;101649.97;256546;1112;104913;-80
2021/03/06 06:09:37;;;;;;;16.40;10.47;;;;;;;-2.79;100.00;101660.30;254978;1112;104316;-80
2021/03/06 06:14:43;;;;;;;15.18;10.00;;;;;;;-2.74;100.00;101665.68;254476;1111;105560;-81
2021/03/06 06:19:44;;;;;;;14.45;8.08;;;;;;;-2.58;100.00;101668.00;253577;1109;104916;-80
2021/03/06 06:24:48;;;;;;;12.25;7.87;;;;;;;-2.63;100.00;101668.66;254801;1111;104426;-80
2021/03/06 06:29:51;;;;;;;9.28;5.47;;;;;;;-2.67;100.00;101685.03;253023;1112;104342;-82
2021/03/06 06:35:00;;;;;;;10.23;7.55;;;;;;;-2.56;100.00;101686.31;252991;1112;104320;-77
2021/03/06 06:40:17;;;;;;;10.50;6.05;;;;;;;-2.53;100.00;101694.23;253253;1111;104444;-76
2021/03/06 06:45:24;;;;;;;10.60;6.25;;;;;;;-2.48;100.00;101700.53;255388;1110;104345;-84
2021/03/06 06:50:33;;;;;;;14.37;8.77;;;;;;;-2.28;100.00;101705.54;253288;1109;115298;-79
2021/03/06 06:55:34;;;;;;;14.93;8.25;;;;;;;-2.38;100.00;101696.51;252817;1111;114804;-81
2021/03/06 07:00:36;;;;;;;15.10;8.38;;;;;;;-2.20;100.00;101706.69;252815;1111;114854;-78
2021/03/06 07:05:40;;;;;;;19.45;9.60;;;;;;;-2.02;100.00;101700.28;252620;1111;115128;-79
2021/03/06 07:10:41;;;;;;;13.10;8.33;;;;;;;-2.07;100.00;101707.09;252668;1110;115125;-79
2021/03/06 07:15:50;;;;;;;16.50;8.47;;;;;;;-1.80;100.00;101710.59;252872;1112;114788;-79
2021/03/06 07:20:55;;;;;;;14.53;8.73;;;;;;;-1.60;100.00;101702.48;252990;1109;114850;-80
2021/03/06 07:25:59;;;;;;;13.35;8.23;;;;;;;-1.60;100.00;101712.94;252674;1109;114877;-76
2021/03/06 07:31:03;;;;;;;16.43;9.10;;;;;;;-1.47;100.00;101708.98;252564;1108;114796;-77
2021/03/06 07:36:08;;;;;;;14.00;9.00;;;;;;;-1.24;100.00;101701.83;252560;1109;114814;-77
2021/03/06 07:41:11;;;;;;;11.55;7.58;;;;;;;-0.98;100.00;101709.53;252798;1109;114808;-78
2021/03/06 07:46:16;;;;;;;11.00;7.70;;;;;;;-0.95;100.00;101709.63;252712;1109;114806;-74
2021/03/06 07:51:19;;;;;;;13.15;7.00;;;;;;;-1.27;100.00;101713.92;252445;1109;114808;-77
2021/03/06 07:56:21;;;;;;;10.90;6.30;;;;;;;-1.42;100.00;101723.09;252647;1109;114829;-75
2021/03/06 08:01:30;;;;;;;10.70;5.70;;;;;;;-1.45;100.00;101733.47;252267;1109;114800;-78
2021/03/06 08:06:33;;;;;;;12.63;7.00;;;;;;;-1.25;100.00;101731.44;253516;1111;114889;-78
2021/03/06 08:11:34;;;;;;;14.53;7.93;;;;;;;-1.42;100.00;101730.06;253483;1112;114701;-80
2021/03/06 08:16:39;;;;;;;11.83;7.50;;;;;;;-1.31;100.00;101724.32;252771;1112;114828;-78
2021/03/06 08:21:44;;;;;;;13.00;8.10;;;;;;;-1.32;100.00;101727.77;252766;1111;115098;-79
2021/03/06 08:27:03;;;;;;;10.98;6.65;;;;;;;-1.11;100.00;101734.48;252634;1110;115113;-79
2021/03/06 08:32:13;;;;;;;9.80;5.62;;;;;;;-0.81;100.00;101729.24;252543;1111;114813;-77
2021/03/06 08:37:20;;;;;;;11.38;7.87;;;;;;;-0.54;100.00;101728.22;252737;1112;115112;-79
2021/03/06 08:42:30;;;;;;;10.43;6.17;;;;;;;-0.75;100.00;101727.63;252841;1109;114859;-77
2021/03/06 08:47:35;;;;;;;12.50;7.67;;;;;;;-0.55;100.00;101728.19;252682;1112;114866;-78
2021/03/06 08:52:39;;;;;;;9.30;6.40;;;;;;;-0.53;100.00;101724.77;252917;1112;114775;-79
2021/03/06 08:57:40;;;;;;;11.18;6.40;;;;;;;-0.47;100.00;101724.05;252897;1112;114607;-77
2021/03/06 09:02:41;;;;;;;10.18;5.55;;;;;;;-0.42;100.00;101726.80;252883;1111;114793;-78
2021/03/06 09:07:47;;;;;;;10.88;6.58;;;;;;;-0.21;99.95;101726.45;252364;1109;115003;-82
2021/03/06 09:12:51;;;;;;;9.65;5.53;;;;;;;-0.01;97.50;101713.86;252659;1110;114726;-79
2021/03/06 09:17:53;;;;;;;9.65;5.80;;;;;;;-0.09;95.26;101715.41;252702;1109;114515;-79
2021/03/06 09:22:54;;;;;;;9.90;4.78;;;;;;;0.12;91.18;101713.31;252815;1109;114797;-77
2021/03/06 09:27:57;;;;;;;6.12;3.70;;;;;;;0.30;86.02;101709.33;252889;1112;114637;-79
2021/03/06 09:32:59;;;;;;;4.85;2.87;;;;;;;0.43;83.54;101706.14;252898;1109;114590;-79
2021/03/06 09:38:10;;;;;;;6.90;2.80;;;;;;;0.60;74.90;101703.89;252819;1110;114518;-78
2021/03/06 09:43:22;;;;;;;2.75;1.62;;;;;;;0.75;73.59;101698.11;252857;1109;114157;-78
2021/03/06 09:48:26;;;;;;;3.90;2.00;;;;;;;0.72;67.67;101692.78;252900;1110;114312;-77
2021/03/06 09:53:28;;;;;;;4.37;2.55;;;;;;;0.82;71.72;101703.48;252874;1109;114247;-78
2021/03/06 09:58:30;;;;;;;3.40;2.40;;;;;;;0.89;73.21;101694.89;253276;1111;114356;-79
2021/03/06 10:03:34;;;;;;;2.07;1.43;;;;;;;1.20;68.26;101700.77;253018;1111;114321;-79
2021/03/06 10:08:47;;;;;;;4.75;2.17;;;;;;;1.16;65.41;101701.55;254967;1112;115696;-78
2021/03/06 10:13:52;;;;;;;2.65;1.67;;;;;;;1.38;67.65;101711.63;257945;1109;113309;-80
2021/03/06 10:18:59;;;;;;;;;;;;;;;1.35;69.98;101708.92;254537;1109;114335;-78
2021/03/06 10:24:03;;;;;;;6.85;3.35;;;;;;;1.44;69.83;101700.34;252947;1109;104264;-76
2021/03/06 10:29:22;;;;;;;6.85;3.87;;;;;;;1.51;70.67;101703.95;253020;1109;114536;-80
2021/03/06 10:34:26;;;;;;;8.60;4.37;;;;;;;1.53;73.27;101696.99;253297;1109;114486;-77
2021/03/06 10:39:27;;;;;;;4.33;3.02;;;;;;;1.49;74.39;101698.69;252600;1109;114422;-83
2021/03/06 10:44:39;;;;;;;6.55;3.52;;;;;;;1.61;75.64;101698.02;252952;1108;114327;-83
2021/03/06 10:49:48;;;;;;;6.58;3.77;;;;;;;1.77;76.54;101693.01;253212;1109;114386;-83
2021/03/06 10:54:52;;;;;;;3.58;2.27;;;;;;;1.81;74.11;101686.97;252686;1109;114318;-77
2021/03/06 10:59:54;;;;;;;5.50;2.70;;;;;;;2.06;73.33;101675.09;252674;1109;114862;-76
2021/03/06 11:05:20;;;;;;;3.72;2.45;;;;;;;2.32;71.77;101679.86;255443;1109;114122;-76
2021/03/06 11:10:22;;;;;;;3.47;2.70;;;;;;;2.47;70.71;101672.19;256082;1109;114591;-77
2021/03/06 11:15:26;;;;;;;5.80;2.67;;;;;;;2.95;72.48;101664.91;256167;1109;114254;-76
2021/03/06 11:20:31;;;;;;;3.08;1.90;;;;;;;3.09;66.05;101635.20;255787;1109;114283;-77
2021/03/06 11:25:34;;;;;;;1.82;1.27;;;;;;;3.35;65.35;101643.36;255471;1112;114196;-78
2021/03/06 11:30:38;;;;;;;5.53;2.35;;;;;;;3.52;66.69;101622.45;253001;1112;114453;-78
2021/03/06 11:35:40;;;;;;;3.62;2.30;;;;;;;4.40;65.15;101611.60;253000;1111;114558;-76
2021/03/06 11:40:44;;;;;;;6.72;2.55;;;;;;;5.77;60.82;101618.98;252676;1109;114815;-78
2021/03/06 11:45:47;;;;;;;4.28;2.45;;;;;;;4.02;60.42;101605.23;252949;1110;114302;-78
2021/03/06 11:50:49;;;;;;;3.70;2.60;;;;;;;8.93;44.60;101596.44;254944;1112;119753;-75
2021/03/06 11:55:51;;;;;;;3.62;2.42;;;;;;;9.15;38.83;101584.62;253639;1111;114351;-78
2021/03/06 12:00:52;;;;;;;3.53;2.30;;;;;;;3.38;52.28;101592.45;252924;1111;114638;-79
2021/03/06 12:05:54;;;;;;;3.90;2.47;;;;;;;3.25;54.80;101589.67;252699;1110;114416;-77
2021/03/06 12:10:55;;;;;;;5.40;3.35;;;;;;;3.49;53.54;101574.95;252416;1110;114331;-77
2021/03/06 12:15:56;;;;;;;4.92;3.20;;;;;;;6.91;44.36;101566.56;252158;1110;114336;-78
2021/03/06 12:20:57;;;;;;;3.77;2.30;;;;;;;8.92;39.33;101565.42;252361;1112;114436;-78
2021/03/06 12:25:59;;;;;;;3.63;2.57;;;;;;;7.94;40.15;101562.18;252660;1112;114457;-78
2021/03/06 12:31:00;;;;;;;6.28;3.45;;;;;;;3.84;50.18;101574.34;252707;1112;114469;-78
2021/03/06 12:36:02;;;;;;;4.67;2.80;;;;;;;4.75;47.39;101556.30;252765;1112;114393;-79
2021/03/06 12:41:03;;;;;;;4.25;3.10;;;;;;;5.83;46.69;101550.17;252835;1112;114263;-80
2021/03/06 12:46:04;;;;;;;3.25;2.77;;;;;;;8.17;39.54;101532.70;252832;1109;114283;-82
2021/03/06 12:51:06;;;;;;;2.02;1.87;;;;;;;8.47;32.54;101543.90;253133;1112;114440;-80
2021/03/06 12:56:07;;;;;;;3.62;2.15;;;;;;;8.20;34.73;101543.31;253089;1111;114982;-81
2021/03/06 13:01:08;;;;;;;3.50;2.40;;;;;;;8.21;34.61;101541.52;254656;1112;104232;-77
2021/03/06 13:06:09;;;;;;;6.25;3.22;;;;;;;10.45;33.71;101529.93;254641;1110;104348;-78
2021/03/06 13:11:11;;;;;;;2.60;1.97;;;;;;;9.36;33.23;101536.39;253849;1112;104809;-79
2021/03/06 13:16:13;;;;;;;4.80;3.53;;;;;;;5.33;42.70;101535.22;253719;1112;104354;-80
2021/03/06 13:21:14;;;;;;;3.67;2.55;;;;;;;5.68;39.43;101534.31;253635;1112;104393;-76
2021/03/06 13:26:16;;;;;;;3.63;2.53;;;;;;;4.36;42.59;101526.22;253537;1112;104409;-80
2021/03/06 13:31:17;;;;;;;4.08;2.40;;;;;;;4.97;39.92;101526.38;253367;1112;104315;-76
2021/03/06 13:36:19;;;;;;;5.23;3.60;;;;;;;5.37;41.79;101515.81;253406;1112;104357;-79
2021/03/06 13:41:20;;;;;;;5.90;4.15;;;;;;;5.63;43.67;101520.22;253297;1112;105424;-78
2021/03/06 13:46:21;;;;;;;6.75;4.95;;;;;;;6.11;43.59;101506.88;253273;1110;104280;-80
2021/03/06 13:51:22;;;;;;;4.12;3.15;;;;;;;5.62;41.68;101503.45;253865;1109;104460;-78
2021/03/06 13:56:24;;;;;;;8.78;5.47;;;;;;;4.83;45.39;101499.95;253814;1112;104351;-79
2021/03/06 14:01:28;;;;;;;7.00;3.42;;;;;;;6.42;41.18;101488.22;253446;1110;104759;-77
2021/03/06 14:06:30;;;;;;;4.60;3.17;;;;;;;6.77;41.40;101489.77;253995;1112;104637;-77
2021/03/06 14:11:31;;;;;;;4.53;3.60;;;;;;;6.94;41.11;101484.35;254044;1112;104271;-79
2021/03/06 14:16:33;;;;;;;4.23;2.97;;;;;;;7.74;39.54;101475.67;254144;1112;104265;-80
2021/03/06 14:21:34;;;;;;;5.17;3.35;;;;;;;8.47;36.43;101485.44;253588;1112;104268;-80
2021/03/06 14:26:35;;;;;;;5.17;2.83;;;;;;;7.07;39.55;101470.11;253341;1111;104386;-79
2021/03/06 14:31:37;;;;;;;5.25;3.83;;;;;;;4.37;45.85;101463.77;253506;1112;104236;-78
2021/03/06 14:36:38;;;;;;;6.45;3.98;;;;;;;3.61;48.60;101451.11;254444;1111;104460;-77
2021/03/06 14:41:41;;;;;;;6.90;4.30;;;;;;;3.69;50.96;101452.91;254939;1111;104310;-76
2021/03/06 14:46:42;;;;;;;8.60;5.83;;;;;;;3.44;51.29;101442.23;254293;1112;104702;-77
2021/03/06 14:51:44;;;;;;;6.25;4.22;;;;;;;3.94;50.01;101433.70;254659;1111;104313;-77
2021/03/06 14:56:45;;;;;;;6.70;3.33;;;;;;;4.45;49.75;101425.93;253972;1112;106059;-77
2021/03/06 15:01:46;;;;;;;3.83;2.37;;;;;;;4.38;48.44;101429.44;255918;1111;104163;-76
2021/03/06 15:06:48;;;;;;;3.43;2.43;;;;;;;4.25;44.69;101423.23;254298;1112;105498;-78
2021/03/06 15:11:49;;;;;;;5.92;3.17;;;;;;;4.32;45.80;101418.87;253676;1112;104262;-76
2021/03/06 15:16:50;;;;;;;5.08;2.77;;;;;;;3.92;45.32;101419.63;254074;1112;104395;-77
2021/03/06 15:21:51;;;;;;;4.62;2.75;;;;;;;4.01;45.31;101421.41;257768;1112;104319;-76
2021/03/06 15:26:53;;;;;;;3.47;2.33;;;;;;;3.83;45.14;101422.21;257529;1112;104195;-77
2021/03/06 15:31:54;;;;;;;6.87;3.80;;;;;;;3.84;43.91;101416.06;257924;1111;104242;-77
2021/03/06 15:36:55;;;;;;;5.05;3.52;;;;;;;3.89;43.52;101413.45;254847;1111;104297;-78
2021/03/06 15:41:56;;;;;;;4.12;2.10;;;;;;;3.77;43.54;101409.87;254132;1112;104239;-78
2021/03/06 15:46:58;;;;;;;4.70;2.83;;;;;;;3.69;44.56;101389.62;254006;1109;104242;-78
2021/03/06 15:51:59;;;;;;;4.03;3.08;;;;;;;3.76;45.22;101383.50;254578;1112;104319;-76
2021/03/06 15:57:00;;;;;;;5.58;3.67;;;;;;;3.48;45.08;101371.09;254197;1111;104249;-78
2021/03/06 16:02:02;;;;;;;4.00;3.00;;;;;;;3.22;45.85;101378.84;254683;1109;104255;-78
2021/03/06 16:07:04;;;;;;;6.03;4.03;;;;;;;3.06;47.12;101366.44;254081;1112;105691;-77
2021/03/06 16:12:06;;;;;;;4.90;3.35;;;;;;;2.87;48.01;101361.92;253730;1111;104268;-77
2021/03/06 16:17:07;;;;;;;4.28;3.22;;;;;;;2.67;48.48;101368.78;253732;1112;104409;-77
2021/03/06 16:22:10;;;;;;;7.12;4.17;;;;;;;2.53;49.68;101360.78;254118;1112;104409;-77
2021/03/06 16:27:12;;;;;;;5.75;3.90;;;;;;;2.50;49.89;101360.75;254125;1112;104242;-78
2021/03/06 16:32:14;;;;;;;6.50;3.70;;;;;;;2.27;51.56;101358.77;253816;1110;104329;-79
2021/03/06 16:37:16;;;;;;;9.63;4.25;;;;;;;2.26;52.64;101362.27;253911;1112;104280;-78
2021/03/06 16:42:18;;;;;;;5.40;3.70;;;;;;;2.04;53.25;101367.31;253707;1109;104291;-78
2021/03/06 16:47:19;;;;;;;7.62;4.30;;;;;;;1.85;54.41;101355.73;253755;1112;104415;-78
2021/03/06 16:52:20;;;;;;;9.07;5.40;;;;;;;1.78;54.93;101353.89;253759;1112;104287;-78
2021/03/06 16:57:22;;;;;;;5.53;4.35;;;;;;;1.71;54.99;101357.31;253816;1112;104332;-78
2021/03/06 17:02:23;;;;;;;7.40;4.85;;;;;;;1.74;54.88;101352.98;253556;1110;104345;-77
2021/03/06 17:07:25;;;;;;;12.00;6.60;;;;;;;1.85;53.93;101352.20;253984;1112;104955;-78
2021/03/06 17:12:26;;;;;;;11.68;6.67;;;;;;;1.78;53.55;101347.73;254308;1112;104342;-78
2021/03/06 17:17:28;;;;;;;16.30;9.08;;;;;;;1.80;54.09;101335.50;253853;1110;104999;-78
2021/03/06 17:22:29;;;;;;;9.90;6.53;;;;;;;1.70;53.60;101330.12;254731;1110;105066;-78
2021/03/06 17:27:30;;;;;;;10.50;7.70;;;;;;;1.67;54.71;101334.47;254161;1112;104265;-78
2021/03/06 17:32:32;;;;;;;13.03;8.50;;;;;;;1.71;53.86;101321.37;253711;1111;104268;-77
2021/03/06 17:37:34;;;;;;;13.48;9.10;;;;;;;1.67;53.53;101313.44;253784;1111;104695;-76
2021/03/06 17:42:35;;;;;;;12.68;8.83;;;;;;;1.59;53.51;101326.50;256900;1112;104265;-77
2021/03/06 17:47:37;;;;;;;12.85;8.98;;;;;;;1.56;53.60;101323.82;257822;1110;104328;-77
2021/03/06 17:52:39;;;;;;;15.65;9.73;;;;;;;1.56;53.53;101313.31;254774;1112;104223;-77
2021/03/06 17:57:40;;;;;;;12.93;8.35;;;;;;;1.42;53.68;101318.41;253709;1111;104239;-77
2021/03/06 18:02:42;;;;;;;18.67;10.40;;;;;;;1.43;54.09;101309.67;253404;1110;104755;-79
2021/03/06 18:07:46;;;;;;;15.63;9.95;;;;;;;1.35;54.34;101296.42;253422;1110;104807;-77
2021/03/06 18:12:47;;;;;;;15.25;10.25;;;;;;;1.30;54.77;101298.13;253303;1110;104339;-77
2021/03/06 18:17:49;;;;;;;15.18;10.68;;;;;;;1.19;54.96;101290.10;253191;1111;104367;-78
2021/03/06 18:22:53;;;;;;;21.25;11.03;;;;;;;1.14;56.72;101286.55;253096;1110;104360;-78
2021/03/06 18:27:57;;;;;;;16.83;11.27;;;;;;;1.15;56.50;101283.06;253136;1110;104386;-78
2021/03/06 18:32:58;;;;;;;17.92;11.53;;;;;;;1.10;56.86;101275.11;253261;1109;104345;-77
2021/03/06 18:38:00;;;;;;;22.87;13.98;;;;;;;1.07;57.71;101280.31;253461;1111;104393;-77
2021/03/06 18:43:01;;;;;;;17.73;9.08;;;;;;;0.93;58.04;101281.86;253458;1111;104390;-77
2021/03/06 18:48:03;;;;;;;21.70;13.80;;;;;;;0.83;59.51;101265.11;253302;1110;104524;-79
2021/03/06 18:53:04;;;;;;;19.70;12.23;;;;;;;0.76;60.29;101269.41;253812;1112;104367;-77
2021/03/06 18:58:05;;;;;;;24.10;14.47;;;;;;;0.80;60.48;101262.45;253775;1112;104354;-79
2021/03/06 19:03:07;;;;;;;20.97;13.40;;;;;;;0.89;60.69;101266.95;253529;1111;104812;-80
2021/03/06 19:08:09;;;;;;;20.57;12.68;;;;;;;0.88;60.84;101268.67;253459;1111;104782;-77
2021/03/06 19:13:10;;;;;;;19.70;12.70;;;;;;;0.73;62.54;101264.09;254371;1111;105344;-79
2021/03/06 19:18:11;;;;;;;22.75;13.72;;;;;;;0.72;62.75;101246.58;253587;1112;104345;-76
2021/03/06 19:23:13;;;;;;;20.72;11.63;;;;;;;0.81;62.71;101244.95;253537;1110;104344;-77
2021/03/06 19:28:15;;;;;;;24.47;13.68;;;;;;;0.81;63.39;101243.23;253376;1112;104344;-80
2021/03/06 19:33:16;;;;;;;16.42;11.73;;;;;;;0.87;63.07;101247.66;253267;1112;104369;-79
2021/03/06 19:38:17;;;;;;;21.27;12.23;;;;;;;0.84;63.10;101231.88;253407;1112;104351;-77
2021/03/06 19:43:18;;;;;;;16.27;11.70;;;;;;;0.87;62.92;101234.53;253215;1111;104486;-78
2021/03/06 19:48:20;;;;;;;14.90;9.68;;;;;;;0.80;63.86;101233.58;253190;1112;104411;-77
2021/03/06 19:53:21;;;;;;;15.72;10.23;;;;;;;0.84;63.32;101232.75;253167;1112;104258;-79
2021/03/06 19:58:22;;;;;;;19.50;11.90;;;;;;;0.92;63.68;101231.11;253228;1112;104369;-79
2021/03/06 20:03:24;;;;;;;9.28;6.42;;;;;;;0.90;63.71;101229.34;253539;1111;104265;-81
2021/03/06 20:08:25;;;;;;;17.07;11.08;;;;;;;0.83;64.78;101216.98;253932;1111;104826;-77
2021/03/06 20:13:29;;;;;;;15.78;10.58;;;;;;;0.89;64.90;101217.06;253600;1111;104345;-78
2021/03/06 20:18:30;;;;;;;12.63;8.77;;;;;;;0.75;65.65;101217.77;253249;1110;104265;-77
2021/03/06 20:23:31;;;;;;;16.27;9.40;;;;;;;0.77;65.72;101202.94;253050;1111;104313;-76
2021/03/06 20:28:34;;;;;;;15.83;10.13;;;;;;;0.73;66.59;101195.86;253209;1109;104269;-78
2021/03/06 20:33:35;;;;;;;16.77;8.97;;;;;;;0.73;65.68;101195.86;252910;1111;104405;-78
2021/03/06 20:38:36;;;;;;;12.10;8.10;;;;;;;0.78;65.53;101182.80;253180;1112;104405;-78
2021/03/06 20:43:37;;;;;;;16.90;9.53;;;;;;;0.73;65.92;101173.99;253501;1111;104345;-78
2021/03/06 20:48:39;;;;;;;11.55;7.25;;;;;;;0.71;65.66;101183.58;253571;1110;104268;-79
2021/03/06 20:53:40;;;;;;;15.65;9.60;;;;;;;0.67;65.62;101164.28;253462;1110;104265;-77
2021/03/06 20:58:41;;;;;;;15.40;10.03;;;;;;;0.59;66.84;101165.92;253317;1112;104348;-79
2021/03/06 21:03:42;;;;;;;12.05;7.30;;;;;;;0.65;66.21;101170.38;253590;1109;104272;-79
2021/03/06 21:08:44;;;;;;;13.40;8.20;;;;;;;0.75;66.41;101178.39;253280;1112;104345;-77
2021/03/06 21:13:45;;;;;;;14.28;9.38;;;;;;;0.78;67.10;101172.30;253164;1112;104293;-77
2021/03/06 21:18:47;;;;;;;12.65;7.90;;;;;;;0.76;66.77;101153.02;253190;1109;104322;-80
2021/03/06 21:23:48;;;;;;;10.10;6.55;;;;;;;0.79;66.93;101143.44;253080;1112;105582;-80
2021/03/06 21:28:49;;;;;;;13.10;7.90;;;;;;;0.81;66.87;101147.83;253323;1112;104264;-78
2021/03/06 21:33:51;;;;;;;11.63;7.42;;;;;;;0.84;67.36;101134.76;252950;1109;114445;-75
2021/03/06 21:38:52;;;;;;;12.15;7.95;;;;;;;0.85;67.01;101129.52;252824;1109;114921;-78
2021/03/06 21:43:53;;;;;;;12.33;6.78;;;;;;;0.86;67.58;101133.01;252714;1109;114879;-77
2021/03/06 21:48:56;;;;;;;13.62;7.67;;;;;;;0.94;68.51;101132.26;252638;1112;114486;-77
2021/03/06 21:53:57;;;;;;;11.10;7.85;;;;;;;1.13;69.77;101127.20;252774;1112;114429;-77
2021/03/06 21:58:58;;;;;;;14.43;8.13;;;;;;;1.24;69.74;101117.67;252655;1109;114723;-78
2021/03/06 22:03:59;;;;;;;12.33;6.67;;;;;;;1.18;70.52;101135.13;252368;1112;114759;-78
2021/03/06 22:09:01;;;;;;;13.90;7.80;;;;;;;1.14;72.21;101118.46;252423;1112;114710;-79
2021/03/06 22:14:03;;;;;;;10.03;6.60;;;;;;;1.06;73.47;101110.48;252442;1112;114386;-78
2021/03/06 22:19:04;;;;;;;9.48;6.75;;;;;;;1.00;75.04;101097.29;252474;1112;114749;-77
2021/03/06 22:24:05;;;;;;;10.13;6.20;;;;;;;1.00;76.83;101064.92;252528;1112;114207;-79
2021/03/06 22:29:07;;;;;;;11.38;6.30;;;;;;;1.02;78.04;101069.31;252731;1112;114459;-77
2021/03/06 22:34:08;;;;;;;9.17;6.63;;;;;;;1.06;77.69;101046.59;252662;1110;114500;-78
2021/03/06 22:39:10;;;;;;;6.85;4.97;;;;;;;1.03;78.37;101057.95;252522;1110;114434;-79
2021/03/06 22:44:11;;;;;;;9.33;6.30;;;;;;;1.07;78.04;101043.11;253118;1111;114701;-77
2021/03/06 22:49:12;;;;;;;7.15;3.95;;;;;;;1.07;77.83;101038.72;253359;1112;114182;-77